createdAt,value
2022-11-04T00:00:45.390Z,9.50
2022-11-04T00:03:12.261Z,7.20
2022-11-04T00:05:38.943Z,9.70
2022-11-04T00:08:23.895Z,8.50
2022-11-04T00:11:17.176Z,7.60
2022-11-04T00:13:44.812Z,7.70
2022-11-04T00:16:31.863Z,7.30
2022-11-04T00:19:02.152Z,8.80
2022-11-04T00:21:47.775Z,8.40
2022-11-04T00:24:33.720Z,8.20
2022-11-04T00:27:19.049Z,8.40
2022-11-04T00:29:45.816Z,8.20
2022-11-04T00:32:31.258Z,9.40
2022-11-04T00:34:58.095Z,9.00
2022-11-04T00:37:24.799Z,8.20
2022-11-04T00:39:51.466Z,8.70
2022-11-04T00:42:18.256Z,9.90
2022-11-04T00:44:44.998Z,8.90
2022-11-04T00:47:11.697Z,9.30
2022-11-04T00:49:38.724Z,10.00
2022-11-04T00:52:05.414Z,11.50
2022-11-04T00:54:32.203Z,11.90
2022-11-04T00:56:58.927Z,14.30
2022-11-04T00:59:25.613Z,13.10
2022-11-04T01:01:52.406Z,11.10
2022-11-04T01:04:19.825Z,9.50
2022-11-04T01:06:46.786Z,15.00
2022-11-04T01:09:13.799Z,12.60
2022-11-04T01:11:40.630Z,10.70
2022-11-04T01:14:07.528Z,9.60
2022-11-04T01:16:34.244Z,9.20
2022-11-04T01:19:02.931Z,10.20
2022-11-04T01:21:30.141Z,9.30
2022-11-04T01:23:57.184Z,10.00
2022-11-04T01:26:25.999Z,9.60
2022-11-04T01:28:54.250Z,9.50
2022-11-04T01:31:27.534Z,8.30
2022-11-04T01:33:55.512Z,10.00
2022-11-04T01:36:22.925Z,10.20
2022-11-04T01:38:50.313Z,9.90
2022-11-04T01:41:23.017Z,11.00
2022-11-04T01:44:03.345Z,9.10
2022-11-04T01:46:46.080Z,10.10
2022-11-04T01:49:25.131Z,10.30
2022-11-04T01:51:57.773Z,9.30
2022-11-04T01:54:24.540Z,9.00
2022-11-04T01:56:51.300Z,10.10
2022-11-04T01:59:27.241Z,9.00
2022-11-04T02:01:54.321Z,8.10
2022-11-04T02:04:27.525Z,7.40
2022-11-04T02:06:58.176Z,9.40
2022-11-04T02:09:28.367Z,8.10
2022-11-04T02:12:13.798Z,8.00
2022-11-04T02:14:42.007Z,9.10
2022-11-04T02:17:17.395Z,7.50
2022-11-04T02:20:20.028Z,7.80
2022-11-04T02:23:05.828Z,9.70
2022-11-04T02:26:06.794Z,20.00
2022-11-04T02:28:47.515Z,18.30
2022-11-04T02:32:01.381Z,13.60
2022-11-04T02:34:34.096Z,17.10
2022-11-04T02:37:06.414Z,15.00
2022-11-04T02:40:03.272Z,14.70
2022-11-04T02:42:59.609Z,12.80
2022-11-04T02:45:37.226Z,12.80
2022-11-04T02:48:25.584Z,10.60
2022-11-04T02:51:01.940Z,15.70
2022-11-04T02:53:47.473Z,27.30
2022-11-04T02:56:17.024Z,31.70
2022-11-04T02:59:11.460Z,24.10
2022-11-04T03:01:42.890Z,10.60
2022-11-04T03:04:24.139Z,11.80
2022-11-04T03:06:53.684Z,12.10
2022-11-04T03:09:22.434Z,11.30
2022-11-04T03:11:55.632Z,10.20
2022-11-04T03:14:35.437Z,10.10
2022-11-04T03:17:08.473Z,9.70
2022-11-04T03:19:47.101Z,9.30
2022-11-04T03:22:20.798Z,10.30
2022-11-04T03:24:49.268Z,9.80
2022-11-04T03:27:18.467Z,9.10
2022-11-04T03:30:01.032Z,10.90
2022-11-04T03:32:35.778Z,10.80
2022-11-04T03:35:03.252Z,9.80
2022-11-04T03:37:29.942Z,8.10
2022-11-04T03:39:56.701Z,8.20
2022-11-04T03:42:26.009Z,6.30
2022-11-04T03:44:54.917Z,7.50
2022-11-04T03:47:26.476Z,9.30
2022-11-04T03:50:02.048Z,8.40
2022-11-04T03:52:28.808Z,8.50
2022-11-04T03:54:55.720Z,9.70
2022-11-04T03:58:08.253Z,9.00
2022-11-04T04:00:44.192Z,9.90
2022-11-04T04:03:22.521Z,10.30
2022-11-04T04:06:03.953Z,9.60
2022-11-04T04:08:30.614Z,10.30
2022-11-04T04:11:03.122Z,17.20
2022-11-04T04:13:45.715Z,19.00
2022-11-04T04:16:27.077Z,16.70
2022-11-04T04:19:02.927Z,19.80
2022-11-04T04:21:35.837Z,18.20
2022-11-04T04:24:26.435Z,19.40
2022-11-04T04:27:14.159Z,19.00
2022-11-04T04:29:43.827Z,16.50
2022-11-04T04:32:12.664Z,18.30
2022-11-04T04:34:39.907Z,15.60
2022-11-04T04:37:32.765Z,12.70
2022-11-04T04:40:24.703Z,10.50
2022-11-04T04:43:11.586Z,10.60
2022-11-04T04:45:42.046Z,8.30
2022-11-04T04:48:12.164Z,6.30
2022-11-04T04:50:47.915Z,7.20
2022-11-04T04:53:15.289Z,8.10
2022-11-04T04:55:42.117Z,7.60
2022-11-04T04:58:09.805Z,8.40
2022-11-04T05:00:36.693Z,7.60
2022-11-04T05:03:03.796Z,6.60
2022-11-04T05:05:30.526Z,6.80
2022-11-04T05:08:07.629Z,8.10
2022-11-04T05:10:34.950Z,8.80
2022-11-04T05:13:20.615Z,7.50
2022-11-04T05:15:47.466Z,7.10
2022-11-04T05:18:14.192Z,7.00
2022-11-04T05:20:40.890Z,6.80
2022-11-04T05:23:11.395Z,6.90
2022-11-04T05:25:39.546Z,6.50
2022-11-04T05:28:08.160Z,7.20
2022-11-04T05:30:35.794Z,8.70
2022-11-04T05:33:05.009Z,8.40
2022-11-04T05:35:33.151Z,8.00
2022-11-04T05:38:00.171Z,9.70
2022-11-04T05:40:26.977Z,9.80
2022-11-04T05:42:53.719Z,8.50
2022-11-04T05:45:20.512Z,9.00
2022-11-04T05:47:47.318Z,7.40
2022-11-04T05:50:14.101Z,7.40
2022-11-04T05:52:40.811Z,7.10
2022-11-04T05:55:07.907Z,9.50
2022-11-04T05:57:35.205Z,7.00
2022-11-04T06:00:02.074Z,10.80
2022-11-04T06:02:31.182Z,9.40
2022-11-04T06:04:58.294Z,9.40
2022-11-04T06:07:25.323Z,10.70
2022-11-04T06:09:52.318Z,9.70
2022-11-04T06:12:19.078Z,9.20
2022-11-04T06:14:53.139Z,9.80
2022-11-04T06:17:21.915Z,8.20
2022-11-04T06:19:49.423Z,9.50
2022-11-04T06:22:18.566Z,9.40
2022-11-04T06:24:45.705Z,10.90
2022-11-04T06:27:12.936Z,8.90
2022-11-04T06:29:40.595Z,9.50
2022-11-04T06:32:09.078Z,8.00
2022-11-04T06:34:36.272Z,7.50
2022-11-04T06:37:03.639Z,7.70
2022-11-04T06:39:30.338Z,8.30
2022-11-04T06:41:59.672Z,10.40
2022-11-04T06:44:29.398Z,11.90
2022-11-04T06:46:56.260Z,8.90
2022-11-04T06:49:23.331Z,9.60
2022-11-04T06:51:50.173Z,8.60
2022-11-04T06:54:17.902Z,8.10
2022-11-04T06:56:45.442Z,10.30
2022-11-04T06:59:17.560Z,9.60
2022-11-04T07:01:45.194Z,8.10
2022-11-04T07:04:12.215Z,8.30
2022-11-04T07:06:43.926Z,8.80
2022-11-04T07:09:13.767Z,7.70
2022-11-04T07:11:42.422Z,7.40
2022-11-04T07:14:09.550Z,8.60
2022-11-04T07:16:36.975Z,8.20
2022-11-04T07:19:04.761Z,5.60
2022-11-04T07:21:31.897Z,7.20
2022-11-04T07:23:58.853Z,7.80
2022-11-04T07:26:25.746Z,7.80
2022-11-04T07:28:52.634Z,8.00
2022-11-04T07:31:19.496Z,8.40
2022-11-04T07:33:49.395Z,9.30
2022-11-04T07:36:16.824Z,8.20
2022-11-04T07:38:44.176Z,7.60
2022-11-04T07:41:11.835Z,6.60
2022-11-04T07:43:38.792Z,7.90
2022-11-04T07:46:14.065Z,8.00
2022-11-04T07:48:41.297Z,9.10
2022-11-04T07:51:10.844Z,8.60
2022-11-04T07:53:37.617Z,7.50
2022-11-04T07:56:06.555Z,8.90
2022-11-04T07:58:34.239Z,7.20
2022-11-04T08:01:03.244Z,8.00
2022-11-04T08:03:30.245Z,7.80
2022-11-04T08:05:59.421Z,9.20
2022-11-04T08:08:27.470Z,8.30
2022-11-04T08:10:56.835Z,8.20
2022-11-04T08:13:28.593Z,8.20
2022-11-04T08:15:56.550Z,8.10
2022-11-04T08:18:23.336Z,7.90
2022-11-04T08:20:51.897Z,8.10
2022-11-04T08:23:19.748Z,6.50
2022-11-04T08:25:46.518Z,8.60
2022-11-04T08:28:16.909Z,8.20
2022-11-04T08:30:58.788Z,9.20
2022-11-04T08:33:27.213Z,8.70
2022-11-04T08:35:56.000Z,8.60
2022-11-04T08:38:22.691Z,8.90
2022-11-04T08:40:49.541Z,7.60
2022-11-04T08:43:16.512Z,8.10
2022-11-04T08:45:45.316Z,9.10
2022-11-04T08:48:13.501Z,8.10
2022-11-04T08:50:40.213Z,8.80
2022-11-04T08:53:07.187Z,7.90
2022-11-04T08:55:35.249Z,7.90
2022-11-04T08:58:02.565Z,10.20
2022-11-04T09:00:29.346Z,8.80
2022-11-04T09:02:56.073Z,7.70
2022-11-04T09:05:22.831Z,8.80
2022-11-04T09:07:49.570Z,9.40
2022-11-04T09:10:16.788Z,7.80
2022-11-04T09:12:44.781Z,8.60
2022-11-04T09:15:13.103Z,8.40
2022-11-04T09:17:40.060Z,7.90
2022-11-04T09:20:07.607Z,8.60
2022-11-04T09:22:34.312Z,7.90
2022-11-04T09:25:01.315Z,7.40
2022-11-04T09:27:28.997Z,7.20
2022-11-04T09:29:55.693Z,7.80
2022-11-04T09:32:22.356Z,8.20
2022-11-04T09:34:49.006Z,7.10
2022-11-04T09:37:15.686Z,7.50
2022-11-04T09:39:42.419Z,7.60
2022-11-04T09:42:24.011Z,7.60
2022-11-04T09:45:20.647Z,8.10
2022-11-04T09:47:49.032Z,7.60
2022-11-04T09:50:22.519Z,8.70
2022-11-04T09:53:01.284Z,7.70
2022-11-04T09:55:41.278Z,6.80
2022-11-04T09:58:12.815Z,6.80
2022-11-04T10:00:44.571Z,6.00
2022-11-04T10:03:34.872Z,7.00
2022-11-04T10:06:20.468Z,6.90
2022-11-04T10:09:13.337Z,6.00
2022-11-04T10:12:06.928Z,6.60
2022-11-04T10:14:46.979Z,7.10
2022-11-04T10:17:38.436Z,6.70
2022-11-04T10:20:30.326Z,5.50
2022-11-04T10:23:01.762Z,5.70
2022-11-04T10:25:52.665Z,5.30
2022-11-04T10:28:24.672Z,6.40
2022-11-04T10:30:51.895Z,5.30
2022-11-04T10:33:30.628Z,5.70
2022-11-04T10:36:01.438Z,6.10
2022-11-04T10:38:49.989Z,6.20
2022-11-04T10:41:22.555Z,5.10
2022-11-04T10:43:53.966Z,5.40
2022-11-04T10:46:38.670Z,5.60
2022-11-04T10:49:25.706Z,5.10
2022-11-04T10:51:54.946Z,5.20
2022-11-04T10:54:22.361Z,4.90
2022-11-04T10:56:52.278Z,5.00
2022-11-04T10:59:26.065Z,5.10
2022-11-04T11:01:56.256Z,4.50
2022-11-04T11:04:36.449Z,4.80
2022-11-04T11:07:06.200Z,4.10
2022-11-04T11:09:53.519Z,5.20
2022-11-04T11:12:51.212Z,5.00
2022-11-04T11:15:38.552Z,5.10
2022-11-04T11:18:16.656Z,4.70
2022-11-04T11:21:03.145Z,4.70
2022-11-04T11:23:35.665Z,4.40
2022-11-04T11:26:05.356Z,5.50
2022-11-04T11:28:41.932Z,4.80
2022-11-04T11:31:22.805Z,4.40
2022-11-04T11:34:00.060Z,4.80
2022-11-04T11:36:30.758Z,4.50
2022-11-04T11:39:11.652Z,4.10
2022-11-04T11:42:07.449Z,4.50
2022-11-04T11:44:47.193Z,4.40
2022-11-04T11:47:27.628Z,4.40
2022-11-04T11:50:33.650Z,4.10
2022-11-04T11:53:16.325Z,5.10
2022-11-04T11:56:01.703Z,4.70
2022-11-04T12:01:31.932Z,4.10
2022-11-04T12:09:58.561Z,4.30
2022-11-04T12:12:45.123Z,4.20
2022-11-04T12:15:36.672Z,4.50
2022-11-04T12:18:37.828Z,4.80
2022-11-04T12:21:20.983Z,5.50
2022-11-04T12:24:01.714Z,5.20
2022-11-04T12:26:31.483Z,5.00
2022-11-04T12:29:16.736Z,6.40
2022-11-04T12:32:01.772Z,4.90
2022-11-04T12:34:31.468Z,6.70
2022-11-04T12:37:03.888Z,8.50
2022-11-04T12:40:10.058Z,6.70
2022-11-04T12:42:53.281Z,7.40
2022-11-04T12:45:38.605Z,5.70
2022-11-04T12:48:12.022Z,6.50
2022-11-04T12:50:55.097Z,5.80
2022-11-04T12:53:40.379Z,4.90
2022-11-04T12:56:21.652Z,5.30
2022-11-04T12:59:12.740Z,5.30
2022-11-04T13:02:02.447Z,5.00
2022-11-04T13:04:36.080Z,5.70
2022-11-04T13:07:28.341Z,6.20
2022-11-04T13:10:05.256Z,6.30
2022-11-04T13:12:38.960Z,6.20
2022-11-04T13:15:19.525Z,5.70
2022-11-04T13:17:49.514Z,5.40
2022-11-04T13:20:42.865Z,5.90
2022-11-04T13:23:20.215Z,6.20
2022-11-04T13:25:47.700Z,5.90
2022-11-04T13:28:20.317Z,6.10
2022-11-04T13:30:55.534Z,5.30
2022-11-04T13:33:25.055Z,5.70
2022-11-04T13:36:27.329Z,6.60
2022-11-04T13:39:01.475Z,5.90
2022-11-04T13:41:59.269Z,8.90
2022-11-04T13:44:34.909Z,7.90
2022-11-04T13:47:05.568Z,7.00
2022-11-04T13:49:36.638Z,11.20
2022-11-04T13:52:13.973Z,9.90
2022-11-04T13:54:42.702Z,8.60
2022-11-04T13:57:18.971Z,6.60
2022-11-04T14:00:10.799Z,8.30
2022-11-04T14:03:06.095Z,7.80
2022-11-04T14:05:35.446Z,8.10
2022-11-04T14:08:02.227Z,8.60
2022-11-04T14:10:44.567Z,10.60
2022-11-04T14:13:30.239Z,7.30
2022-11-04T14:16:24.394Z,8.50
2022-11-04T14:18:53.470Z,10.00
2022-11-04T14:21:22.937Z,5.50
2022-11-04T14:24:01.663Z,8.70
2022-11-04T14:26:46.427Z,7.80
2022-11-04T14:29:25.024Z,12.70
2022-11-04T14:31:54.710Z,11.40
2022-11-04T14:34:31.028Z,7.10
2022-11-04T14:37:05.913Z,8.70
2022-11-04T14:39:40.021Z,8.90
2022-11-04T14:42:12.119Z,10.10
2022-11-04T14:44:49.317Z,6.80
2022-11-04T14:47:18.885Z,8.00
2022-11-04T14:50:01.039Z,8.90
2022-11-04T14:52:31.827Z,10.10
2022-11-04T14:55:11.183Z,9.10
2022-11-04T14:57:47.828Z,11.30
2022-11-04T15:00:24.106Z,13.10
2022-11-04T15:03:10.449Z,12.20
2022-11-04T15:05:50.873Z,11.70
2022-11-04T15:08:24.898Z,17.50
2022-11-04T15:11:11.350Z,15.80
2022-11-04T15:13:48.282Z,12.60
2022-11-04T15:16:25.892Z,12.40
2022-11-04T15:18:55.486Z,10.40
2022-11-04T15:21:23.421Z,9.80
2022-11-04T15:23:54.961Z,10.30
2022-11-04T15:26:30.032Z,12.10
2022-11-04T15:29:07.045Z,10.30
2022-11-04T15:31:35.713Z,11.30
2022-11-04T15:34:11.655Z,9.00
2022-11-04T15:36:42.863Z,9.50
2022-11-04T15:39:18.994Z,9.50
2022-11-04T15:42:05.867Z,9.30
2022-11-04T15:44:36.086Z,9.40
2022-11-04T15:47:22.007Z,10.30
2022-11-04T15:49:51.509Z,10.80
2022-11-04T15:52:28.694Z,14.70
2022-11-04T15:54:57.923Z,9.40
2022-11-04T15:57:31.061Z,7.90
2022-11-04T16:00:27.936Z,13.90
2022-11-04T16:02:57.031Z,10.70
2022-11-04T16:05:39.350Z,8.60
2022-11-04T16:08:21.638Z,11.90
2022-11-04T16:10:49.771Z,12.30
2022-11-04T16:13:16.504Z,9.20
2022-11-04T16:16:08.803Z,10.20
2022-11-04T16:18:58.068Z,8.30
2022-11-04T16:21:31.823Z,11.80
2022-11-04T16:24:21.114Z,17.00
2022-11-04T16:26:48.073Z,12.70
2022-11-04T16:29:27.535Z,12.20
2022-11-04T16:32:13.313Z,11.10
2022-11-04T16:34:40.193Z,11.20
2022-11-04T16:37:06.994Z,11.40
2022-11-04T16:39:33.793Z,18.40
2022-11-04T16:42:00.564Z,76.60
2022-11-04T16:44:27.484Z,90.70
2022-11-04T16:46:56.535Z,336.70
2022-11-04T16:49:23.258Z,173.50
2022-11-04T16:51:55.572Z,200.70
2022-11-04T16:54:24.013Z,235.40
2022-11-04T16:56:50.854Z,384.40
2022-11-04T16:59:17.535Z,295.00
2022-11-04T17:01:44.388Z,146.30
2022-11-04T17:04:11.356Z,108.50
2022-11-04T17:06:38.866Z,123.20
2022-11-04T17:09:22.628Z,54.80
2022-11-04T17:11:49.488Z,50.00
2022-11-04T17:14:16.251Z,44.20
2022-11-04T17:16:43.573Z,52.50
2022-11-04T17:19:16.251Z,55.10
2022-11-04T17:21:44.721Z,86.60
2022-11-04T17:24:14.190Z,26.20
2022-11-04T17:26:40.938Z,48.30
2022-11-04T17:29:08.044Z,24.90
2022-11-04T17:31:36.513Z,31.60
2022-11-04T17:34:03.640Z,43.10
2022-11-04T17:36:30.431Z,44.30
2022-11-04T17:38:57.173Z,38.20
2022-11-04T17:41:42.586Z,31.80
2022-11-04T17:44:09.345Z,21.00
2022-11-04T17:46:41.215Z,33.30
2022-11-04T17:49:22.248Z,23.30
2022-11-04T17:51:55.127Z,23.90
2022-11-04T17:54:23.675Z,27.10
2022-11-04T17:56:50.428Z,26.40
2022-11-04T17:59:17.719Z,45.90
2022-11-04T18:01:45.606Z,36.20
2022-11-04T18:04:18.976Z,30.70
2022-11-04T18:06:45.765Z,30.20
2022-11-04T18:09:14.521Z,23.10
2022-11-04T18:12:00.448Z,19.00
2022-11-04T18:14:27.432Z,22.40
2022-11-04T18:16:54.376Z,18.70
2022-11-04T18:19:22.902Z,15.20
2022-11-04T18:21:50.565Z,21.50
2022-11-04T18:24:18.778Z,19.70
2022-11-04T18:26:46.013Z,18.10
2022-11-04T18:29:12.992Z,24.70
2022-11-04T18:31:44.652Z,14.70
2022-11-04T18:34:18.650Z,15.70
2022-11-04T18:36:47.080Z,18.60
2022-11-04T18:39:16.231Z,17.50
2022-11-04T18:41:43.330Z,20.50
2022-11-04T18:44:15.528Z,16.80
2022-11-04T18:46:43.307Z,17.50
2022-11-04T18:49:11.229Z,15.70
2022-11-04T18:51:38.869Z,16.50
2022-11-04T18:54:07.299Z,18.10
2022-11-04T18:56:34.241Z,15.40
2022-11-04T18:59:01.382Z,15.50
2022-11-04T19:01:33.535Z,14.20
2022-11-04T19:04:01.099Z,15.40
2022-11-04T19:06:31.807Z,14.80
2022-11-04T19:09:04.971Z,12.70
2022-11-04T19:11:42.254Z,12.40
2022-11-04T19:14:13.701Z,13.10
2022-11-04T19:16:42.210Z,13.50
2022-11-04T19:19:13.329Z,12.90
2022-11-04T19:21:40.216Z,13.20
2022-11-04T19:24:07.688Z,12.20
2022-11-04T19:26:35.260Z,12.80
2022-11-04T19:29:05.341Z,12.90
2022-11-04T19:31:33.022Z,12.70
2022-11-04T19:34:06.398Z,13.00
2022-11-04T19:36:34.658Z,13.40
2022-11-04T19:39:01.402Z,19.20
2022-11-04T19:41:47.123Z,17.20
2022-11-04T19:44:16.470Z,12.70
2022-11-04T19:46:43.380Z,12.50
2022-11-04T19:49:12.013Z,15.10
2022-11-04T19:51:39.717Z,10.90
2022-11-04T19:54:07.063Z,12.10
2022-11-04T19:56:35.834Z,10.00
2022-11-04T19:59:07.221Z,11.50
2022-11-04T20:01:35.334Z,10.40
2022-11-04T20:04:03.596Z,11.70
2022-11-04T20:06:32.614Z,11.50
2022-11-04T20:09:05.379Z,9.00
2022-11-04T20:11:56.100Z,10.60
2022-11-04T20:14:23.609Z,10.20
2022-11-04T20:16:50.773Z,8.10
2022-11-04T20:19:22.486Z,7.80
2022-11-04T20:21:50.375Z,9.50
2022-11-04T20:24:17.532Z,8.40
2022-11-04T20:26:46.112Z,9.60
2022-11-04T20:29:15.562Z,9.70
2022-11-04T20:31:43.691Z,8.70
2022-11-04T20:34:12.462Z,10.60
2022-11-04T20:36:39.871Z,10.50
2022-11-04T20:39:18.299Z,7.80
2022-11-04T20:41:45.997Z,9.80
2022-11-04T20:44:14.472Z,8.10
2022-11-04T20:46:42.228Z,9.00
2022-11-04T20:49:09.446Z,11.80
2022-11-04T20:51:41.607Z,7.90
2022-11-04T20:54:09.655Z,7.80
2022-11-04T20:56:38.552Z,8.80
2022-11-04T20:59:06.667Z,7.30
2022-11-04T21:01:37.086Z,6.70
2022-11-04T21:04:06.996Z,7.70
2022-11-04T21:06:37.048Z,7.00
2022-11-04T21:09:05.207Z,8.50
2022-11-04T21:11:33.865Z,8.10
2022-11-04T21:14:01.547Z,7.70
2022-11-04T21:16:29.864Z,7.40
2022-11-04T21:18:57.317Z,6.80
2022-11-04T21:21:26.737Z,6.20
2022-11-04T21:24:05.150Z,8.40
2022-11-04T21:26:34.059Z,7.20
2022-11-04T21:29:03.893Z,7.10
2022-11-04T21:31:32.092Z,8.50
2022-11-04T21:33:59.513Z,8.00
2022-11-04T21:36:26.295Z,7.00
2022-11-04T21:38:53.002Z,8.30
2022-11-04T21:41:24.527Z,6.90
2022-11-04T21:44:11.826Z,7.60
2022-11-04T21:46:38.684Z,6.60
2022-11-04T21:49:05.406Z,5.50
2022-11-04T21:51:33.806Z,6.90
2022-11-04T21:54:03.448Z,6.60
2022-11-04T21:56:32.445Z,8.20
2022-11-04T21:58:59.826Z,7.30
2022-11-04T22:01:28.709Z,6.10
2022-11-04T22:04:00.477Z,6.30
2022-11-04T22:06:33.624Z,7.70
2022-11-04T22:09:04.568Z,6.40
2022-11-04T22:11:35.701Z,6.40
2022-11-04T22:14:04.829Z,6.70
2022-11-04T22:16:34.553Z,7.10
2022-11-04T22:19:03.349Z,7.00
2022-11-04T22:21:31.122Z,6.60
2022-11-04T22:23:58.648Z,8.60
2022-11-04T22:26:29.080Z,6.90
2022-11-04T22:28:56.491Z,6.70
2022-11-04T22:31:29.112Z,7.30
2022-11-04T22:33:57.088Z,8.20
2022-11-04T22:36:23.842Z,6.80
2022-11-04T22:38:50.633Z,7.30
2022-11-04T22:41:24.817Z,7.30
2022-11-04T22:43:51.579Z,7.90
2022-11-04T22:46:21.709Z,7.30
2022-11-04T22:48:48.581Z,7.80
2022-11-04T22:51:15.331Z,8.40
2022-11-04T22:53:42.364Z,6.80
2022-11-04T22:56:12.167Z,7.80
2022-11-04T22:58:39.253Z,8.10
2022-11-04T23:01:09.200Z,7.40
2022-11-04T23:03:36.168Z,8.20
2022-11-04T23:06:05.074Z,6.80
2022-11-04T23:08:34.022Z,7.40
2022-11-04T23:11:25.950Z,7.10
2022-11-04T23:14:19.817Z,6.60
2022-11-04T23:17:08.879Z,6.60
2022-11-04T23:19:37.121Z,7.50
2022-11-04T23:22:23.251Z,8.10
2022-11-04T23:25:05.168Z,6.70
2022-11-04T23:28:06.371Z,8.40
2022-11-04T23:30:36.667Z,8.50
2022-11-04T23:33:05.804Z,6.90
2022-11-04T23:35:58.516Z,6.80
2022-11-04T23:38:26.279Z,8.00
2022-11-04T23:41:17.608Z,8.20
2022-11-04T23:43:44.420Z,7.40
2022-11-04T23:46:30.002Z,7.80
2022-11-04T23:49:12.743Z,7.00
2022-11-04T23:51:58.306Z,6.80
2022-11-04T23:54:43.791Z,7.00
2022-11-04T23:57:35.195Z,6.90
